sensor_id;sensor_type;location;lat;lon;timestamp;P1;durP1;ratioP1;P2;durP2;ratioP2
49812;SDS011;35706;52.100;5.056;2023-07-30T00:00:12;4.40;;;0.40;;
49812;SDS011;35706;52.100;5.056;2023-07-30T00:01:13;3.50;;;0.40;;
49812;SDS011;35706;52.100;5.056;2023-07-30T00:02:13;6.03;;;0.40;;
49812;SDS011;35706;52.100;5.056;2023-07-30T00:03:14;6.60;;;0.68;;
49812;SDS011;35706;52.100;5.056;2023-07-30T00:04:14;7.25;;;0.30;;
49812;SDS011;35706;52.100;5.056;2023-07-30T00:05:14;13.68;;;0.50;;
49812;SDS011;35706;52.100;5.056;2023-07-30T00:06:15;7.53;;;0.50;;
49812;SDS011;35706;52.100;5.056;2023-07-30T00:07:15;2.80;;;0.40;;
49812;SDS011;35706;52.100;5.056;2023-07-30T00:08:15;7.35;;;0.40;;
49812;SDS011;35706;52.100;5.056;2023-07-30T00:09:15;7.00;;;0.40;;
49812;SDS011;35706;52.100;5.056;2023-07-30T00:10:16;6.32;;;0.40;;
49812;SDS011;35706;52.100;5.056;2023-07-30T00:11:17;4.95;;;0.40;;
49812;SDS011;35706;52.100;5.056;2023-07-30T00:12:17;5.05;;;0.40;;
49812;SDS011;35706;52.100;5.056;2023-07-30T00:13:18;3.78;;;0.40;;
49812;SDS011;35706;52.100;5.056;2023-07-30T00:14:18;7.97;;;0.40;;
49812;SDS011;35706;52.100;5.056;2023-07-30T00:15:18;8.60;;;0.40;;
49812;SDS011;35706;52.100;5.056;2023-07-30T00:16:19;4.20;;;0.40;;
49812;SDS011;35706;52.100;5.056;2023-07-30T00:17:19;1.92;;;0.40;;
49812;SDS011;35706;52.100;5.056;2023-07-30T00:18:19;4.60;;;0.40;;
49812;SDS011;35706;52.100;5.056;2023-07-30T00:19:20;3.70;;;0.40;;
49812;SDS011;35706;52.100;5.056;2023-07-30T00:20:20;5.07;;;0.40;;
49812;SDS011;35706;52.100;5.056;2023-07-30T00:21:20;3.67;;;0.40;;
49812;SDS011;35706;52.100;5.056;2023-07-30T00:22:21;4.57;;;0.60;;
49812;SDS011;35706;52.100;5.056;2023-07-30T00:23:21;2.97;;;0.40;;
49812;SDS011;35706;52.100;5.056;2023-07-30T00:24:21;4.90;;;0.32;;
49812;SDS011;35706;52.100;5.056;2023-07-30T00:25:21;3.95;;;0.40;;
49812;SDS011;35706;52.100;5.056;2023-07-30T00:26:22;5.50;;;0.40;;
49812;SDS011;35706;52.100;5.056;2023-07-30T00:27:26;3.72;;;0.40;;
49812;SDS011;35706;52.100;5.056;2023-07-30T00:28:26;5.72;;;0.38;;
49812;SDS011;35706;52.100;5.056;2023-07-30T00:29:26;4.28;;;0.40;;
49812;SDS011;35706;52.100;5.056;2023-07-30T00:30:27;3.53;;;0.40;;
49812;SDS011;35706;52.100;5.056;2023-07-30T00:31:27;5.10;;;0.40;;
49812;SDS011;35706;52.100;5.056;2023-07-30T00:32:27;7.13;;;0.50;;
49812;SDS011;35706;52.100;5.056;2023-07-30T00:33:28;5.00;;;0.80;;
49812;SDS011;35706;52.100;5.056;2023-07-30T00:34:28;4.47;;;0.40;;
49812;SDS011;35706;52.100;5.056;2023-07-30T00:35:28;5.82;;;0.40;;
49812;SDS011;35706;52.100;5.056;2023-07-30T00:36:29;5.10;;;0.50;;
49812;SDS011;35706;52.100;5.056;2023-07-30T00:37:29;6.68;;;0.40;;
49812;SDS011;35706;52.100;5.056;2023-07-30T00:38:29;4.97;;;0.40;;
49812;SDS011;35706;52.100;5.056;2023-07-30T00:39:30;9.85;;;0.50;;
49812;SDS011;35706;52.100;5.056;2023-07-30T00:40:30;4.35;;;0.40;;
49812;SDS011;35706;52.100;5.056;2023-07-30T00:41:31;5.85;;;0.40;;
49812;SDS011;35706;52.100;5.056;2023-07-30T00:42:31;6.47;;;0.40;;
49812;SDS011;35706;52.100;5.056;2023-07-30T00:43:31;3.63;;;0.30;;
49812;SDS011;35706;52.100;5.056;2023-07-30T00:44:32;5.45;;;0.47;;
49812;SDS011;35706;52.100;5.056;2023-07-30T00:45:32;6.38;;;0.50;;
49812;SDS011;35706;52.100;5.056;2023-07-30T00:46:33;3.90;;;0.50;;
49812;SDS011;35706;52.100;5.056;2023-07-30T00:47:34;4.18;;;0.43;;
49812;SDS011;35706;52.100;5.056;2023-07-30T00:48:34;6.20;;;0.50;;
49812;SDS011;35706;52.100;5.056;2023-07-30T00:49:35;4.60;;;0.50;;
49812;SDS011;35706;52.100;5.056;2023-07-30T00:50:35;7.80;;;0.40;;
49812;SDS011;35706;52.100;5.056;2023-07-30T00:51:36;3.95;;;0.40;;
49812;SDS011;35706;52.100;5.056;2023-07-30T00:52:37;5.65;;;0.50;;
49812;SDS011;35706;52.100;5.056;2023-07-30T00:53:37;4.38;;;0.40;;
49812;SDS011;35706;52.100;5.056;2023-07-30T00:54:38;8.13;;;0.50;;
49812;SDS011;35706;52.100;5.056;2023-07-30T00:55:39;8.07;;;0.65;;
49812;SDS011;35706;52.100;5.056;2023-07-30T00:56:40;6.57;;;0.50;;
49812;SDS011;35706;52.100;5.056;2023-07-30T00:57:49;4.15;;;0.50;;
49812;SDS011;35706;52.100;5.056;2023-07-30T00:58:50;6.85;;;0.47;;
49812;SDS011;35706;52.100;5.056;2023-07-30T00:59:52;2.15;;;0.40;;
49812;SDS011;35706;52.100;5.056;2023-07-30T01:00:53;5.25;;;0.50;;
49812;SDS011;35706;52.100;5.056;2023-07-30T01:01:54;5.93;;;0.60;;
49812;SDS011;35706;52.100;5.056;2023-07-30T01:02:57;6.60;;;0.50;;
49812;SDS011;35706;52.100;5.056;2023-07-30T01:03:58;8.80;;;0.50;;
49812;SDS011;35706;52.100;5.056;2023-07-30T01:04:58;8.13;;;0.45;;
49812;SDS011;35706;52.100;5.056;2023-07-30T01:06:01;4.60;;;0.50;;
49812;SDS011;35706;52.100;5.056;2023-07-30T01:07:01;5.70;;;0.47;;
49812;SDS011;35706;52.100;5.056;2023-07-30T01:08:02;5.57;;;0.50;;
49812;SDS011;35706;52.100;5.056;2023-07-30T01:09:03;7.50;;;0.40;;
49812;SDS011;35706;52.100;5.056;2023-07-30T01:10:03;3.42;;;0.40;;
49812;SDS011;35706;52.100;5.056;2023-07-30T01:11:04;7.55;;;0.50;;
49812;SDS011;35706;52.100;5.056;2023-07-30T01:12:05;6.80;;;0.50;;
49812;SDS011;35706;52.100;5.056;2023-07-30T01:13:07;8.68;;;0.70;;
49812;SDS011;35706;52.100;5.056;2023-07-30T01:14:09;5.90;;;0.40;;
49812;SDS011;35706;52.100;5.056;2023-07-30T01:15:10;5.68;;;0.40;;
49812;SDS011;35706;52.100;5.056;2023-07-30T01:16:12;4.53;;;0.55;;
49812;SDS011;35706;52.100;5.056;2023-07-30T01:17:12;7.10;;;0.60;;
49812;SDS011;35706;52.100;5.056;2023-07-30T01:18:13;10.35;;;0.60;;
49812;SDS011;35706;52.100;5.056;2023-07-30T01:19:14;4.30;;;0.60;;
49812;SDS011;35706;52.100;5.056;2023-07-30T01:20:14;5.47;;;0.60;;
49812;SDS011;35706;52.100;5.056;2023-07-30T01:21:14;8.73;;;0.70;;
49812;SDS011;35706;52.100;5.056;2023-07-30T01:22:15;6.43;;;0.50;;
49812;SDS011;35706;52.100;5.056;2023-07-30T01:23:16;7.10;;;0.60;;
49812;SDS011;35706;52.100;5.056;2023-07-30T01:24:16;7.95;;;0.50;;
49812;SDS011;35706;52.100;5.056;2023-07-30T01:25:16;10.07;;;0.60;;
49812;SDS011;35706;52.100;5.056;2023-07-30T01:26:24;12.75;;;0.65;;
49812;SDS011;35706;52.100;5.056;2023-07-30T01:27:31;7.07;;;0.55;;
49812;SDS011;35706;52.100;5.056;2023-07-30T01:28:37;8.30;;;0.50;;
49812;SDS011;35706;52.100;5.056;2023-07-30T01:29:43;7.82;;;0.60;;
49812;SDS011;35706;52.100;5.056;2023-07-30T01:30:48;6.70;;;0.50;;
49812;SDS011;35706;52.100;5.056;2023-07-30T01:31:53;9.55;;;0.70;;
49812;SDS011;35706;52.100;5.056;2023-07-30T01:32:56;12.27;;;0.70;;
49812;SDS011;35706;52.100;5.056;2023-07-30T01:33:57;12.32;;;0.80;;
49812;SDS011;35706;52.100;5.056;2023-07-30T01:35:00;4.60;;;0.47;;
49812;SDS011;35706;52.100;5.056;2023-07-30T01:36:02;11.55;;;0.63;;
49812;SDS011;35706;52.100;5.056;2023-07-30T01:37:04;12.93;;;0.50;;
49812;SDS011;35706;52.100;5.056;2023-07-30T01:38:08;5.78;;;0.52;;
49812;SDS011;35706;52.100;5.056;2023-07-30T01:39:10;6.50;;;0.80;;
49812;SDS011;35706;52.100;5.056;2023-07-30T01:40:11;6.72;;;0.77;;
49812;SDS011;35706;52.100;5.056;2023-07-30T01:41:13;6.70;;;0.60;;
49812;SDS011;35706;52.100;5.056;2023-07-30T01:42:13;10.15;;;0.50;;
49812;SDS011;35706;52.100;5.056;2023-07-30T01:43:14;9.07;;;0.60;;
49812;SDS011;35706;52.100;5.056;2023-07-30T01:44:14;14.45;;;0.85;;
49812;SDS011;35706;52.100;5.056;2023-07-30T01:45:14;14.23;;;0.60;;
49812;SDS011;35706;52.100;5.056;2023-07-30T01:46:15;6.05;;;0.50;;
49812;SDS011;35706;52.100;5.056;2023-07-30T01:47:18;12.90;;;0.98;;
49812;SDS011;35706;52.100;5.056;2023-07-30T01:48:18;8.27;;;0.60;;
49812;SDS011;35706;52.100;5.056;2023-07-30T01:49:19;9.00;;;0.50;;
49812;SDS011;35706;52.100;5.056;2023-07-30T01:50:19;6.05;;;0.60;;
49812;SDS011;35706;52.100;5.056;2023-07-30T01:51:19;6.63;;;0.80;;
49812;SDS011;35706;52.100;5.056;2023-07-30T01:52:20;7.82;;;0.60;;
49812;SDS011;35706;52.100;5.056;2023-07-30T01:53:20;10.90;;;0.63;;
49812;SDS011;35706;52.100;5.056;2023-07-30T01:54:20;13.55;;;0.60;;
49812;SDS011;35706;52.100;5.056;2023-07-30T01:55:21;10.55;;;0.60;;
49812;SDS011;35706;52.100;5.056;2023-07-30T01:56:21;11.57;;;0.77;;
49812;SDS011;35706;52.100;5.056;2023-07-30T01:57:22;11.85;;;0.60;;
49812;SDS011;35706;52.100;5.056;2023-07-30T01:58:22;15.40;;;0.63;;
49812;SDS011;35706;52.100;5.056;2023-07-30T01:59:22;10.77;;;0.80;;
49812;SDS011;35706;52.100;5.056;2023-07-30T02:00:23;5.63;;;0.60;;
49812;SDS011;35706;52.100;5.056;2023-07-30T02:01:23;10.15;;;0.90;;
49812;SDS011;35706;52.100;5.056;2023-07-30T02:02:23;16.33;;;0.70;;
49812;SDS011;35706;52.100;5.056;2023-07-30T02:03:24;11.70;;;0.70;;
49812;SDS011;35706;52.100;5.056;2023-07-30T02:04:25;12.20;;;0.65;;
49812;SDS011;35706;52.100;5.056;2023-07-30T02:05:25;8.88;;;0.60;;
49812;SDS011;35706;52.100;5.056;2023-07-30T02:06:25;7.93;;;0.60;;
49812;SDS011;35706;52.100;5.056;2023-07-30T02:07:26;13.13;;;1.35;;
49812;SDS011;35706;52.100;5.056;2023-07-30T02:08:26;11.82;;;0.90;;
49812;SDS011;35706;52.100;5.056;2023-07-30T02:09:26;7.40;;;0.60;;
49812;SDS011;35706;52.100;5.056;2023-07-30T02:10:27;7.95;;;0.60;;
49812;SDS011;35706;52.100;5.056;2023-07-30T02:11:27;18.10;;;0.80;;
49812;SDS011;35706;52.100;5.056;2023-07-30T02:12:28;6.13;;;0.50;;
49812;SDS011;35706;52.100;5.056;2023-07-30T02:13:28;15.50;;;0.85;;
49812;SDS011;35706;52.100;5.056;2023-07-30T02:14:29;14.77;;;0.70;;
49812;SDS011;35706;52.100;5.056;2023-07-30T02:15:29;18.55;;;0.80;;
49812;SDS011;35706;52.100;5.056;2023-07-30T02:16:29;16.95;;;0.88;;
49812;SDS011;35706;52.100;5.056;2023-07-30T02:17:30;13.05;;;0.70;;
49812;SDS011;35706;52.100;5.056;2023-07-30T02:18:30;14.40;;;0.90;;
49812;SDS011;35706;52.100;5.056;2023-07-30T02:19:30;10.80;;;0.70;;
49812;SDS011;35706;52.100;5.056;2023-07-30T02:20:31;11.38;;;0.60;;
49812;SDS011;35706;52.100;5.056;2023-07-30T02:21:31;12.30;;;0.60;;
49812;SDS011;35706;52.100;5.056;2023-07-30T02:22:33;13.27;;;0.80;;
49812;SDS011;35706;52.100;5.056;2023-07-30T02:23:34;14.52;;;0.80;;
49812;SDS011;35706;52.100;5.056;2023-07-30T02:24:34;14.07;;;0.65;;
49812;SDS011;35706;52.100;5.056;2023-07-30T02:25:34;10.20;;;0.60;;
49812;SDS011;35706;52.100;5.056;2023-07-30T02:26:35;10.48;;;0.60;;
49812;SDS011;35706;52.100;5.056;2023-07-30T02:27:35;12.45;;;0.70;;
49812;SDS011;35706;52.100;5.056;2023-07-30T02:28:36;8.10;;;0.70;;
49812;SDS011;35706;52.100;5.056;2023-07-30T02:29:36;10.10;;;0.98;;
49812;SDS011;35706;52.100;5.056;2023-07-30T02:30:36;12.00;;;0.70;;
49812;SDS011;35706;52.100;5.056;2023-07-30T02:31:37;12.32;;;0.75;;
49812;SDS011;35706;52.100;5.056;2023-07-30T02:32:37;10.93;;;0.70;;
49812;SDS011;35706;52.100;5.056;2023-07-30T02:33:37;15.55;;;0.70;;
49812;SDS011;35706;52.100;5.056;2023-07-30T02:34:38;12.25;;;1.23;;
49812;SDS011;35706;52.100;5.056;2023-07-30T02:35:38;11.75;;;0.70;;
49812;SDS011;35706;52.100;5.056;2023-07-30T02:36:39;13.70;;;0.70;;
49812;SDS011;35706;52.100;5.056;2023-07-30T02:37:39;14.38;;;0.80;;
49812;SDS011;35706;52.100;5.056;2023-07-30T02:38:39;12.75;;;0.90;;
49812;SDS011;35706;52.100;5.056;2023-07-30T02:39:39;12.15;;;0.70;;
49812;SDS011;35706;52.100;5.056;2023-07-30T02:40:41;18.65;;;0.75;;
49812;SDS011;35706;52.100;5.056;2023-07-30T02:41:41;14.05;;;0.68;;
49812;SDS011;35706;52.100;5.056;2023-07-30T02:42:41;6.28;;;0.80;;
49812;SDS011;35706;52.100;5.056;2023-07-30T02:43:42;10.65;;;0.65;;
49812;SDS011;35706;52.100;5.056;2023-07-30T02:44:42;14.07;;;0.70;;
49812;SDS011;35706;52.100;5.056;2023-07-30T02:45:42;15.32;;;0.80;;
49812;SDS011;35706;52.100;5.056;2023-07-30T02:46:43;16.05;;;1.13;;
49812;SDS011;35706;52.100;5.056;2023-07-30T02:47:43;18.90;;;0.90;;
49812;SDS011;35706;52.100;5.056;2023-07-30T02:48:43;14.45;;;0.88;;
49812;SDS011;35706;52.100;5.056;2023-07-30T02:49:44;11.85;;;0.80;;
49812;SDS011;35706;52.100;5.056;2023-07-30T02:50:44;12.75;;;0.85;;
49812;SDS011;35706;52.100;5.056;2023-07-30T02:51:45;12.23;;;0.85;;
49812;SDS011;35706;52.100;5.056;2023-07-30T02:52:48;12.60;;;0.80;;
49812;SDS011;35706;52.100;5.056;2023-07-30T02:53:51;20.05;;;1.00;;
49812;SDS011;35706;52.100;5.056;2023-07-30T02:54:53;16.75;;;0.93;;
49812;SDS011;35706;52.100;5.056;2023-07-30T02:55:53;12.07;;;0.90;;
49812;SDS011;35706;52.100;5.056;2023-07-30T02:56:54;9.80;;;0.73;;
49812;SDS011;35706;52.100;5.056;2023-07-30T02:57:54;14.95;;;0.82;;
49812;SDS011;35706;52.100;5.056;2023-07-30T02:58:54;12.60;;;0.80;;
49812;SDS011;35706;52.100;5.056;2023-07-30T02:59:55;16.45;;;0.80;;
49812;SDS011;35706;52.100;5.056;2023-07-30T03:00:55;12.75;;;0.90;;
49812;SDS011;35706;52.100;5.056;2023-07-30T03:01:55;16.58;;;1.13;;
49812;SDS011;35706;52.100;5.056;2023-07-30T03:02:56;16.45;;;0.90;;
49812;SDS011;35706;52.100;5.056;2023-07-30T03:03:56;18.85;;;0.90;;
49812;SDS011;35706;52.100;5.056;2023-07-30T03:04:57;16.92;;;0.80;;
49812;SDS011;35706;52.100;5.056;2023-07-30T03:05:57;12.65;;;0.80;;
49812;SDS011;35706;52.100;5.056;2023-07-30T03:06:57;20.42;;;1.20;;
49812;SDS011;35706;52.100;5.056;2023-07-30T03:07:58;18.25;;;1.13;;
49812;SDS011;35706;52.100;5.056;2023-07-30T03:08:58;21.13;;;1.30;;
49812;SDS011;35706;52.100;5.056;2023-07-30T03:09:58;12.93;;;0.90;;
49812;SDS011;35706;52.100;5.056;2023-07-30T03:10:59;10.82;;;0.80;;
49812;SDS011;35706;52.100;5.056;2023-07-30T03:11:59;11.68;;;0.80;;
49812;SDS011;35706;52.100;5.056;2023-07-30T03:13:00;14.30;;;0.90;;
49812;SDS011;35706;52.100;5.056;2023-07-30T03:14:00;14.20;;;0.95;;
49812;SDS011;35706;52.100;5.056;2023-07-30T03:15:00;19.25;;;1.10;;
49812;SDS011;35706;52.100;5.056;2023-07-30T03:16:01;20.50;;;1.17;;
49812;SDS011;35706;52.100;5.056;2023-07-30T03:17:02;15.25;;;0.80;;
49812;SDS011;35706;52.100;5.056;2023-07-30T03:18:04;19.20;;;1.30;;
49812;SDS011;35706;52.100;5.056;2023-07-30T03:19:05;19.70;;;1.27;;
49812;SDS011;35706;52.100;5.056;2023-07-30T03:20:05;18.88;;;1.05;;
49812;SDS011;35706;52.100;5.056;2023-07-30T03:21:08;11.93;;;0.82;;
49812;SDS011;35706;52.100;5.056;2023-07-30T03:22:09;21.13;;;1.00;;
49812;SDS011;35706;52.100;5.056;2023-07-30T03:23:09;12.48;;;1.38;;
49812;SDS011;35706;52.100;5.056;2023-07-30T03:24:09;17.70;;;0.85;;
49812;SDS011;35706;52.100;5.056;2023-07-30T03:25:10;27.50;;;1.77;;
49812;SDS011;35706;52.100;5.056;2023-07-30T03:26:10;16.48;;;1.02;;
49812;SDS011;35706;52.100;5.056;2023-07-30T03:27:11;22.83;;;1.40;;
49812;SDS011;35706;52.100;5.056;2023-07-30T03:28:11;17.48;;;1.00;;
49812;SDS011;35706;52.100;5.056;2023-07-30T03:29:11;17.83;;;1.10;;
49812;SDS011;35706;52.100;5.056;2023-07-30T03:30:12;16.67;;;1.42;;
49812;SDS011;35706;52.100;5.056;2023-07-30T03:31:12;19.90;;;1.35;;
49812;SDS011;35706;52.100;5.056;2023-07-30T03:32:12;16.02;;;1.35;;
49812;SDS011;35706;52.100;5.056;2023-07-30T03:33:13;23.52;;;1.50;;
49812;SDS011;35706;52.100;5.056;2023-07-30T03:34:13;18.83;;;1.42;;
49812;SDS011;35706;52.100;5.056;2023-07-30T03:35:14;21.20;;;1.10;;
49812;SDS011;35706;52.100;5.056;2023-07-30T03:36:14;17.33;;;1.42;;
49812;SDS011;35706;52.100;5.056;2023-07-30T03:37:15;30.92;;;2.45;;
49812;SDS011;35706;52.100;5.056;2023-07-30T03:38:15;31.88;;;1.42;;
49812;SDS011;35706;52.100;5.056;2023-07-30T03:39:15;21.90;;;1.55;;
49812;SDS011;35706;52.100;5.056;2023-07-30T03:40:15;17.65;;;1.52;;
49812;SDS011;35706;52.100;5.056;2023-07-30T03:41:16;14.63;;;1.63;;
49812;SDS011;35706;52.100;5.056;2023-07-30T03:42:16;18.50;;;1.15;;
49812;SDS011;35706;52.100;5.056;2023-07-30T03:43:16;18.00;;;1.52;;
49812;SDS011;35706;52.100;5.056;2023-07-30T03:44:17;20.27;;;1.58;;
49812;SDS011;35706;52.100;5.056;2023-07-30T03:45:17;17.13;;;1.90;;
49812;SDS011;35706;52.100;5.056;2023-07-30T03:46:18;16.75;;;1.40;;
49812;SDS011;35706;52.100;5.056;2023-07-30T03:47:18;25.02;;;1.52;;
49812;SDS011;35706;52.100;5.056;2023-07-30T03:48:18;19.92;;;1.92;;
49812;SDS011;35706;52.100;5.056;2023-07-30T03:49:19;21.30;;;1.20;;
49812;SDS011;35706;52.100;5.056;2023-07-30T03:50:19;18.23;;;1.30;;
49812;SDS011;35706;52.100;5.056;2023-07-30T03:51:19;19.02;;;1.15;;
49812;SDS011;35706;52.100;5.056;2023-07-30T03:52:20;19.77;;;1.50;;
49812;SDS011;35706;52.100;5.056;2023-07-30T03:53:20;19.63;;;1.65;;
49812;SDS011;35706;52.100;5.056;2023-07-30T03:54:21;17.73;;;1.35;;
49812;SDS011;35706;52.100;5.056;2023-07-30T03:55:21;23.52;;;1.58;;
49812;SDS011;35706;52.100;5.056;2023-07-30T03:56:22;18.15;;;2.10;;
49812;SDS011;35706;52.100;5.056;2023-07-30T03:57:22;24.83;;;1.67;;
49812;SDS011;35706;52.100;5.056;2023-07-30T03:58:22;22.65;;;1.70;;
49812;SDS011;35706;52.100;5.056;2023-07-30T03:59:23;20.67;;;1.65;;
49812;SDS011;35706;52.100;5.056;2023-07-30T04:00:23;22.10;;;1.92;;
49812;SDS011;35706;52.100;5.056;2023-07-30T04:01:24;21.13;;;1.80;;
49812;SDS011;35706;52.100;5.056;2023-07-30T04:02:24;19.70;;;1.42;;
49812;SDS011;35706;52.100;5.056;2023-07-30T04:03:24;20.13;;;1.45;;
49812;SDS011;35706;52.100;5.056;2023-07-30T04:04:25;19.55;;;1.40;;
49812;SDS011;35706;52.100;5.056;2023-07-30T04:05:25;22.75;;;1.33;;
49812;SDS011;35706;52.100;5.056;2023-07-30T04:06:25;30.38;;;3.05;;
49812;SDS011;35706;52.100;5.056;2023-07-30T04:07:26;19.67;;;1.45;;
49812;SDS011;35706;52.100;5.056;2023-07-30T04:08:26;29.33;;;2.50;;
49812;SDS011;35706;52.100;5.056;2023-07-30T04:09:26;25.50;;;2.05;;
49812;SDS011;35706;52.100;5.056;2023-07-30T04:10:27;32.90;;;2.38;;
49812;SDS011;35706;52.100;5.056;2023-07-30T04:11:27;21.98;;;1.73;;
49812;SDS011;35706;52.100;5.056;2023-07-30T04:12:28;24.48;;;1.95;;
49812;SDS011;35706;52.100;5.056;2023-07-30T04:13:28;20.90;;;1.70;;
49812;SDS011;35706;52.100;5.056;2023-07-30T04:14:28;27.33;;;2.13;;
49812;SDS011;35706;52.100;5.056;2023-07-30T04:15:29;17.67;;;1.83;;
49812;SDS011;35706;52.100;5.056;2023-07-30T04:16:29;21.85;;;1.75;;
49812;SDS011;35706;52.100;5.056;2023-07-30T04:17:30;29.13;;;2.40;;
49812;SDS011;35706;52.100;5.056;2023-07-30T04:18:30;21.30;;;2.03;;
49812;SDS011;35706;52.100;5.056;2023-07-30T04:19:31;25.85;;;1.95;;
49812;SDS011;35706;52.100;5.056;2023-07-30T04:20:31;29.05;;;1.90;;
49812;SDS011;35706;52.100;5.056;2023-07-30T04:21:31;25.23;;;2.20;;
49812;SDS011;35706;52.100;5.056;2023-07-30T04:22:32;37.20;;;2.42;;
49812;SDS011;35706;52.100;5.056;2023-07-30T04:23:32;25.40;;;1.88;;
49812;SDS011;35706;52.100;5.056;2023-07-30T04:24:33;19.15;;;1.52;;
49812;SDS011;35706;52.100;5.056;2023-07-30T04:25:33;26.00;;;1.88;;
49812;SDS011;35706;52.100;5.056;2023-07-30T04:26:33;25.27;;;1.80;;
49812;SDS011;35706;52.100;5.056;2023-07-30T04:27:34;22.10;;;1.92;;
49812;SDS011;35706;52.100;5.056;2023-07-30T04:28:34;35.00;;;2.42;;
49812;SDS011;35706;52.100;5.056;2023-07-30T04:29:34;27.13;;;2.40;;
49812;SDS011;35706;52.100;5.056;2023-07-30T04:30:35;16.88;;;1.67;;
49812;SDS011;35706;52.100;5.056;2023-07-30T04:31:35;23.50;;;2.38;;
49812;SDS011;35706;52.100;5.056;2023-07-30T04:32:36;27.10;;;2.17;;
49812;SDS011;35706;52.100;5.056;2023-07-30T04:33:36;25.33;;;2.47;;
49812;SDS011;35706;52.100;5.056;2023-07-30T04:34:36;23.10;;;2.28;;
49812;SDS011;35706;52.100;5.056;2023-07-30T04:35:37;19.10;;;2.72;;
49812;SDS011;35706;52.100;5.056;2023-07-30T04:36:37;31.88;;;2.28;;
49812;SDS011;35706;52.100;5.056;2023-07-30T04:37:37;28.55;;;2.00;;
49812;SDS011;35706;52.100;5.056;2023-07-30T04:38:38;27.70;;;2.42;;
49812;SDS011;35706;52.100;5.056;2023-07-30T04:39:38;19.23;;;1.90;;
49812;SDS011;35706;52.100;5.056;2023-07-30T04:40:39;27.83;;;2.45;;
49812;SDS011;35706;52.100;5.056;2023-07-30T04:41:39;27.38;;;2.40;;
49812;SDS011;35706;52.100;5.056;2023-07-30T04:42:39;28.70;;;2.50;;
49812;SDS011;35706;52.100;5.056;2023-07-30T04:43:40;27.00;;;2.25;;
49812;SDS011;35706;52.100;5.056;2023-07-30T04:44:40;17.98;;;2.40;;
49812;SDS011;35706;52.100;5.056;2023-07-30T04:45:42;23.42;;;1.83;;
49812;SDS011;35706;52.100;5.056;2023-07-30T04:46:42;28.73;;;2.65;;
49812;SDS011;35706;52.100;5.056;2023-07-30T04:47:42;26.90;;;2.00;;
49812;SDS011;35706;52.100;5.056;2023-07-30T04:48:43;34.33;;;3.35;;
49812;SDS011;35706;52.100;5.056;2023-07-30T04:49:43;25.77;;;2.30;;
49812;SDS011;35706;52.100;5.056;2023-07-30T04:50:44;31.73;;;2.13;;
49812;SDS011;35706;52.100;5.056;2023-07-30T04:51:44;30.92;;;2.90;;
49812;SDS011;35706;52.100;5.056;2023-07-30T04:52:44;26.65;;;2.60;;
49812;SDS011;35706;52.100;5.056;2023-07-30T04:53:45;25.10;;;3.08;;
49812;SDS011;35706;52.100;5.056;2023-07-30T04:54:45;31.48;;;2.90;;
49812;SDS011;35706;52.100;5.056;2023-07-30T04:55:45;25.50;;;2.20;;
49812;SDS011;35706;52.100;5.056;2023-07-30T04:56:46;27.38;;;2.80;;
49812;SDS011;35706;52.100;5.056;2023-07-30T04:57:46;28.10;;;2.65;;
49812;SDS011;35706;52.100;5.056;2023-07-30T04:58:46;22.95;;;3.03;;
49812;SDS011;35706;52.100;5.056;2023-07-30T04:59:47;27.15;;;2.78;;
49812;SDS011;35706;52.100;5.056;2023-07-30T05:00:47;32.42;;;2.95;;
49812;SDS011;35706;52.100;5.056;2023-07-30T05:01:47;30.95;;;3.15;;
49812;SDS011;35706;52.100;5.056;2023-07-30T05:02:48;28.60;;;2.70;;
49812;SDS011;35706;52.100;5.056;2023-07-30T05:03:48;31.30;;;2.70;;
49812;SDS011;35706;52.100;5.056;2023-07-30T05:04:48;23.90;;;2.55;;
49812;SDS011;35706;52.100;5.056;2023-07-30T05:05:49;24.02;;;3.10;;
49812;SDS011;35706;52.100;5.056;2023-07-30T05:06:49;34.72;;;3.33;;
49812;SDS011;35706;52.100;5.056;2023-07-30T05:07:49;24.55;;;3.20;;
49812;SDS011;35706;52.100;5.056;2023-07-30T05:08:50;31.63;;;3.67;;
49812;SDS011;35706;52.100;5.056;2023-07-30T05:09:50;22.55;;;2.75;;
49812;SDS011;35706;52.100;5.056;2023-07-30T05:10:51;32.60;;;3.08;;
49812;SDS011;35706;52.100;5.056;2023-07-30T05:11:51;26.33;;;3.63;;
49812;SDS011;35706;52.100;5.056;2023-07-30T05:12:51;24.70;;;3.42;;
49812;SDS011;35706;52.100;5.056;2023-07-30T05:13:52;34.28;;;2.85;;
49812;SDS011;35706;52.100;5.056;2023-07-30T05:14:52;37.38;;;4.32;;
49812;SDS011;35706;52.100;5.056;2023-07-30T05:15:52;32.35;;;3.50;;
49812;SDS011;35706;52.100;5.056;2023-07-30T05:16:53;38.85;;;4.03;;
49812;SDS011;35706;52.100;5.056;2023-07-30T05:17:53;27.30;;;3.38;;
49812;SDS011;35706;52.100;5.056;2023-07-30T05:18:53;39.05;;;3.50;;
49812;SDS011;35706;52.100;5.056;2023-07-30T05:19:54;26.58;;;2.88;;
49812;SDS011;35706;52.100;5.056;2023-07-30T05:20:55;27.27;;;3.45;;
49812;SDS011;35706;52.100;5.056;2023-07-30T05:21:55;35.22;;;4.13;;
49812;SDS011;35706;52.100;5.056;2023-07-30T05:22:55;32.33;;;3.53;;
49812;SDS011;35706;52.100;5.056;2023-07-30T05:23:56;31.25;;;3.17;;
49812;SDS011;35706;52.100;5.056;2023-07-30T05:24:56;33.63;;;4.05;;
49812;SDS011;35706;52.100;5.056;2023-07-30T05:25:57;30.52;;;3.60;;
49812;SDS011;35706;52.100;5.056;2023-07-30T05:26:57;32.72;;;3.50;;
49812;SDS011;35706;52.100;5.056;2023-07-30T05:27:57;30.70;;;3.22;;
49812;SDS011;35706;52.100;5.056;2023-07-30T05:28:58;35.22;;;3.67;;
49812;SDS011;35706;52.100;5.056;2023-07-30T05:29:58;32.33;;;3.35;;
49812;SDS011;35706;52.100;5.056;2023-07-30T05:30:59;38.65;;;2.83;;
49812;SDS011;35706;52.100;5.056;2023-07-30T05:31:59;28.45;;;2.50;;
49812;SDS011;35706;52.100;5.056;2023-07-30T05:32:59;30.65;;;3.83;;
49812;SDS011;35706;52.100;5.056;2023-07-30T05:34:00;41.60;;;4.40;;
49812;SDS011;35706;52.100;5.056;2023-07-30T05:35:00;32.55;;;2.97;;
49812;SDS011;35706;52.100;5.056;2023-07-30T05:36:00;31.58;;;2.80;;
49812;SDS011;35706;52.100;5.056;2023-07-30T05:37:01;43.25;;;3.72;;
49812;SDS011;35706;52.100;5.056;2023-07-30T05:38:01;28.52;;;3.22;;
49812;SDS011;35706;52.100;5.056;2023-07-30T05:39:01;30.75;;;3.10;;
49812;SDS011;35706;52.100;5.056;2023-07-30T05:40:02;33.78;;;3.53;;
49812;SDS011;35706;52.100;5.056;2023-07-30T05:41:03;32.35;;;3.88;;
49812;SDS011;35706;52.100;5.056;2023-07-30T05:42:03;29.02;;;3.17;;
49812;SDS011;35706;52.100;5.056;2023-07-30T05:43:04;31.92;;;3.28;;
49812;SDS011;35706;52.100;5.056;2023-07-30T05:44:04;26.15;;;3.10;;
49812;SDS011;35706;52.100;5.056;2023-07-30T05:45:05;20.15;;;2.65;;
49812;SDS011;35706;52.100;5.056;2023-07-30T05:46:05;32.78;;;3.80;;
49812;SDS011;35706;52.100;5.056;2023-07-30T05:47:06;32.45;;;2.95;;
49812;SDS011;35706;52.100;5.056;2023-07-30T05:48:06;37.17;;;3.40;;
49812;SDS011;35706;52.100;5.056;2023-07-30T05:49:06;25.33;;;2.97;;
49812;SDS011;35706;52.100;5.056;2023-07-30T05:50:07;26.20;;;3.35;;
49812;SDS011;35706;52.100;5.056;2023-07-30T05:51:08;34.35;;;3.20;;
49812;SDS011;35706;52.100;5.056;2023-07-30T05:52:08;29.58;;;2.72;;
49812;SDS011;35706;52.100;5.056;2023-07-30T05:53:09;29.85;;;3.60;;
49812;SDS011;35706;52.100;5.056;2023-07-30T05:54:09;26.15;;;3.10;;
49812;SDS011;35706;52.100;5.056;2023-07-30T05:55:09;30.65;;;3.13;;
49812;SDS011;35706;52.100;5.056;2023-07-30T05:56:10;24.67;;;3.30;;
49812;SDS011;35706;52.100;5.056;2023-07-30T05:57:12;27.90;;;3.20;;
49812;SDS011;35706;52.100;5.056;2023-07-30T05:58:13;26.92;;;2.85;;
49812;SDS011;35706;52.100;5.056;2023-07-30T05:59:14;36.05;;;3.95;;
49812;SDS011;35706;52.100;5.056;2023-07-30T06:00:14;27.75;;;3.72;;
49812;SDS011;35706;52.100;5.056;2023-07-30T06:01:15;29.27;;;3.95;;